Time;durP1;ratioP1;P1;durP2;ratioP2;P2;SDS_P1;SDS_P2;PMS_P1;PMS_P2;Temp;Humidity;BMP_temperature;BMP_pressure;BME280_temperature;BME280_humidity;BME280_pressure;Samples;Min_cycle;Max_cycle;Signal;HPM_P1;HPM_P2
2023/10/14 00:00:52;;;;;;;;;;;20.10;74.00;;;;;;5021763;28;1482;-68
2023/10/14 00:03:27;;;;;;;;;;;20.00;73.90;;;;;;5021855;28;1355;-68
2023/10/14 00:05:54;;;;;;;;;;;20.10;74.00;;;;;;5019539;28;1286;-68
2023/10/14 00:08:20;;;;;;;;;;;20.10;74.00;;;;;;5020816;28;1962;-69
2023/10/14 00:10:46;;;;;;;;;;;20.10;74.00;;;;;;5022235;28;1332;-68
2023/10/14 00:13:16;;;;;;;;;;;20.10;74.20;;;;;;5018764;28;1419;-68
2023/10/14 00:15:41;;;;;;;;;;;20.10;74.00;;;;;;5019907;28;1323;-68
2023/10/14 00:18:07;;;;;;;;;;;20.00;73.90;;;;;;5020940;28;1351;-68
2023/10/14 00:20:35;;;;;;;;;;;20.00;74.00;;;;;;5018419;28;1322;-68
2023/10/14 00:23:04;;;;;;;;;;;20.00;73.90;;;;;;5020444;28;1359;-68
2023/10/14 00:25:32;;;;;;;;;;;20.10;74.00;;;;;;5020456;28;1245;-68
2023/10/14 00:27:58;;;;;;;;;;;20.10;74.00;;;;;;5021586;28;1910;-68
2023/10/14 00:30:31;;;;;;;;;;;20.10;74.00;;;;;;5020212;28;1376;-68
2023/10/14 00:32:57;;;;;;;;;;;20.10;74.00;;;;;;5019504;28;1475;-69
2023/10/14 00:35:24;;;;;;;;;;;20.10;74.00;;;;;;5017147;28;1277;-68
2023/10/14 00:37:52;;;;;;;;;;;20.10;74.00;;;;;;5020902;28;1382;-68
2023/10/14 00:40:24;;;;;;;;;;;20.10;74.00;;;;;;5020871;28;1554;-68
2023/10/14 00:42:51;;;;;;;;;;;20.10;74.00;;;;;;5018930;28;1306;-69
2023/10/14 00:45:20;;;;;;;;;;;20.10;74.00;;;;;;5019815;28;1169;-68
2023/10/14 00:47:47;;;;;;;;;;;20.10;74.00;;;;;;5018420;28;1934;-68
2023/10/14 00:52:54;;;;;;;;;;;20.10;74.00;;;;;;5021158;28;1473;-69
2023/10/14 00:55:24;;;;;;;;;;;20.10;74.00;;;;;;5020339;28;1466;-68
2023/10/14 00:57:54;;;;;;;;;;;20.10;74.00;;;;;;5022107;28;1273;-69
2023/10/14 01:00:33;;;;;;;;;;;20.10;74.00;;;;;;5019333;28;1320;-68
2023/10/14 01:03:01;;;;;;;;;;;20.10;74.00;;;;;;5021931;28;1371;-67
2023/10/14 01:05:29;;;;;;;;;;;20.10;74.00;;;;;;5020188;28;1255;-68
2023/10/14 01:07:58;;;;;;;;;;;20.10;74.00;;;;;;5018052;28;1902;-68
2023/10/14 01:10:24;;;;;;;;;;;20.10;74.00;;;;;;5020700;28;1385;-69
2023/10/14 01:12:54;;;;;;;;;;;20.10;74.00;;;;;;5017482;28;1308;-68
2023/10/14 01:15:20;;;;;;;;;;;20.10;74.00;;;;;;5018513;28;1438;-69
2023/10/14 01:17:46;;;;;;;;;;;20.10;74.00;;;;;;5019602;28;1368;-68
2023/10/14 01:22:41;;;;;;;;;;;20.10;74.00;;;;;;5018513;28;1302;-68
2023/10/14 01:25:15;;;;;;;;;;;20.10;74.00;;;;;;5019313;28;1327;-68
2023/10/14 01:27:43;;;;;;;;;;;20.10;74.00;;;;;;5022366;28;1902;-69
2023/10/14 01:30:18;;;;;;;;;;;20.10;74.00;;;;;;5020763;28;1445;-68
2023/10/14 01:35:24;;;;;;;;;;;20.10;74.00;;;;;;5018879;28;998;-69
2023/10/14 01:37:55;;;;;;;;;;;20.10;74.70;;;;;;5018087;28;1289;-69
2023/10/14 01:42:50;;;;;;;;;;;20.10;74.00;;;;;;5025661;28;1451;-67
2023/10/14 01:45:21;;;;;;;;;;;20.10;74.00;;;;;;5025960;28;1292;-68
2023/10/14 01:47:57;;;;;;;;;;;20.10;74.00;;;;;;5022679;28;1894;-67
2023/10/14 01:50:22;;;;;;;;;;;20.10;74.00;;;;;;5024077;28;1351;-67
2023/10/14 01:52:52;;;;;;;;;;;20.10;74.00;;;;;;5021802;28;1266;-69
2023/10/14 01:55:20;;;;;;;;;;;20.00;74.00;;;;;;5022568;28;1335;-68
2023/10/14 01:57:47;;;;;;;;;;;20.10;74.00;;;;;;5032411;28;1352;-68
2023/10/14 02:00:35;;;;;;;;;;;20.10;74.00;;;;;;5024707;28;1729;-68
2023/10/14 02:03:06;;;;;;;;;;;20.10;74.00;;;;;;5020867;28;1413;-68
2023/10/14 02:05:34;;;;;;;;;;;20.10;74.00;;;;;;5023725;28;1421;-67
2023/10/14 02:08:00;;;;;;;;;;;20.10;74.00;;;;;;5024308;28;1965;-68
2023/10/14 02:10:27;;;;;;;;;;;20.10;74.00;;;;;;5019672;28;1347;-68
2023/10/14 02:12:53;;;;;;;;;;;20.10;74.00;;;;;;5023768;28;1315;-68
2023/10/14 02:15:19;;;;;;;;;;;20.00;73.90;;;;;;5024702;28;1420;-68
2023/10/14 02:17:47;;;;;;;;;;;20.00;73.90;;;;;;5022724;28;1426;-68
2023/10/14 02:20:27;;;;;;;;;;;20.10;74.00;;;;;;5026587;28;1473;-68
2023/10/14 02:22:57;;;;;;;;;;;20.10;74.00;;;;;;5023141;28;1412;-68
2023/10/14 02:25:27;;;;;;;;;;;20.10;74.00;;;;;;5023766;28;1446;-68
2023/10/14 02:27:54;;;;;;;;;;;20.10;74.00;;;;;;5028383;28;1910;-68
2023/10/14 02:30:19;;;;;;;;;;;20.10;74.10;;;;;;5020995;28;1297;-68
2023/10/14 02:32:44;;;;;;;;;;;20.10;74.00;;;;;;5020451;28;1579;-68
2023/10/14 02:35:12;;;;;;;;;;;20.10;74.00;;;;;;5024205;28;1942;-69
2023/10/14 02:37:37;;;;;;;;;;;20.10;74.00;;;;;;5024392;28;1526;-67
2023/10/14 02:40:08;;;;;;;;;;;20.10;74.00;;;;;;5024558;28;1627;-66
2023/10/14 02:42:33;;;;;;;;;;;20.10;74.00;;;;;;5023684;28;1406;-66
2023/10/14 02:45:04;;;;;;;;;;;20.10;74.00;;;;;;5023064;28;1561;-67
2023/10/14 02:47:32;;;;;;;;;;;20.10;74.00;;;;;;5023658;28;1949;-67
2023/10/14 02:50:13;;;;;;;;;;;20.10;74.00;;;;;;5026312;28;1406;-68
2023/10/14 02:52:39;;;;;;;;;;;20.10;74.00;;;;;;5022205;28;1389;-69
2023/10/14 02:55:50;;;;;;;;;;;20.10;74.70;;;;;;5022206;28;1423;-69
2023/10/14 02:57:56;;;;;;;;;;;20.10;74.00;;;;;;5022234;28;1356;-70
2023/10/14 03:00:28;;;;;;;;;;;20.10;74.10;;;;;;5023578;28;1330;-69
2023/10/14 03:03:02;;;;;;;;;;;20.10;74.10;;;;;;5022524;28;1257;-69
2023/10/14 03:06:14;;;;;;;;;;;20.10;74.10;;;;;;5019851;28;1509;-69
2023/10/14 03:08:16;;;;;;;;;;;20.10;74.00;;;;;;5020016;28;1952;-69
2023/10/14 03:10:59;;;;;;;;;;;20.10;74.10;;;;;;5021904;28;1474;-69
2023/10/14 03:13:25;;;;;;;;;;;20.10;74.00;;;;;;5021792;28;1336;-70
2023/10/14 03:15:54;;;;;;;;;;;20.10;74.10;;;;;;5024295;28;1461;-69
2023/10/14 03:18:19;;;;;;;;;;;20.10;74.10;;;;;;5020346;28;1351;-69
2023/10/14 03:21:30;;;;;;;;;;;20.10;74.00;;;;;;5020895;28;1390;-70
2023/10/14 03:23:32;;;;;;;;;;;20.10;74.00;;;;;;5024038;28;1296;-69
2023/10/14 03:26:05;;;;;;;;;;;20.10;74.00;;;;;;5019255;28;1322;-69
2023/10/14 03:28:31;;;;;;;;;;;20.00;74.00;;;;;;5024716;28;1934;-70
2023/10/14 03:30:58;;;;;;;;;;;20.10;74.10;;;;;;5023407;28;1353;-70
2023/10/14 03:33:27;;;;;;;;;;;20.10;74.00;;;;;;5020874;28;1473;-70
2023/10/14 03:36:15;;;;;;;;;;;20.10;74.00;;;;;;5018508;28;1367;-69
2023/10/14 03:38:41;;;;;;;;;;;20.10;74.00;;;;;;5020093;28;1270;-70
2023/10/14 03:41:10;;;;;;;;;;;20.10;74.10;;;;;;5021204;28;1467;-69
2023/10/14 03:43:58;;;;;;;;;;;20.10;74.00;;;;;;5022998;28;1552;-70
2023/10/14 03:48:56;;;;;;;;;;;20.10;74.10;;;;;;5020702;28;1500;-70
2023/10/14 03:51:25;;;;;;;;;;;20.10;74.10;;;;;;5022227;28;1392;-68
2023/10/14 03:53:52;;;;;;;;;;;20.10;74.10;;;;;;5019269;28;1297;-68
2023/10/14 03:56:21;;;;;;;;;;;20.10;74.00;;;;;;5017025;28;1284;-68
2023/10/14 03:58:55;;;;;;;;;;;20.10;74.00;;;;;;5020496;28;1324;-69
2023/10/14 04:01:23;;;;;;;;;;;20.10;74.00;;;;;;5021000;28;1569;-69
2023/10/14 04:03:52;;;;;;;;;;;20.10;74.10;;;;;;5020939;28;1429;-69
2023/10/14 04:06:19;;;;;;;;;;;20.10;74.00;;;;;;5023147;28;1898;-69
2023/10/14 04:08:48;;;;;;;;;;;20.10;74.10;;;;;;5023177;28;1531;-68
2023/10/14 04:11:25;;;;;;;;;;;20.10;74.10;;;;;;5021710;28;1137;-69
2023/10/14 04:14:08;;;;;;;;;;;20.10;74.00;;;;;;5021068;28;1450;-68
2023/10/14 04:19:44;;;;;;;;;;;20.10;74.10;;;;;;5021016;28;1200;-68
2023/10/14 04:30:31;;;;;;;;;;;20.10;74.10;;;;;;5017648;28;1190;-68
2023/10/14 04:33:04;;;;;;;;;;;20.10;74.10;;;;;;5019331;28;1535;-69
2023/10/14 04:35:33;;;;;;;;;;;20.10;74.10;;;;;;5017362;28;1455;-68
2023/10/14 04:38:03;;;;;;;;;;;20.10;74.10;;;;;;5018590;28;1304;-68
2023/10/14 04:40:37;;;;;;;;;;;20.10;74.10;;;;;;5022855;28;1535;-70
2023/10/14 04:51:10;;;;;;;;;;;20.10;74.10;;;;;;5018924;28;1575;-69
2023/10/14 04:53:43;;;;;;;;;;;20.10;74.10;;;;;;5019343;28;1474;-69
2023/10/14 04:56:09;;;;;;;;;;;20.10;74.10;;;;;;5017970;28;1365;-68
2023/10/14 04:58:37;;;;;;;;;;;20.10;74.10;;;;;;5017092;28;1446;-69
2023/10/14 05:01:17;;;;;;;;;;;20.00;74.00;;;;;;5018840;28;1571;-71
2023/10/14 05:03:43;;;;;;;;;;;20.10;74.10;;;;;;5010736;28;1902;-67
2023/10/14 05:08:55;;;;;;;;;;;20.10;74.90;;;;;;5019141;28;2291;-67
2023/10/14 05:11:25;;;;;;;;;;;20.10;74.10;;;;;;5018964;28;1564;-67
2023/10/14 05:14:09;;;;;;;;;;;20.10;74.20;;;;;;5019347;28;1377;-67
2023/10/14 05:17:04;;;;;;;;;;;20.10;74.10;;;;;;5018544;28;1547;-70
2023/10/14 05:19:24;;;;;;;;;;;20.10;74.20;;;;;;5020916;28;1389;-70
2023/10/14 05:21:57;;;;;;;;;;;20.10;74.90;;;;;;5015812;28;1379;-66
2023/10/14 05:24:23;;;;;;;;;;;20.10;74.20;;;;;;5019365;28;1504;-66
2023/10/14 05:26:58;;;;;;;;;;;20.10;74.20;;;;;;5018626;28;2192;-67
2023/10/14 05:29:24;;;;;;;;;;;20.10;74.20;;;;;;5017256;28;1449;-67
2023/10/14 05:31:50;;;;;;;;;;;20.10;74.10;;;;;;5017200;28;1332;-67
2023/10/14 05:34:21;;;;;;;;;;;20.10;74.20;;;;;;5020213;28;1405;-68
2023/10/14 05:36:48;;;;;;;;;;;20.10;74.20;;;;;;5018178;28;1341;-67
2023/10/14 05:39:13;;;;;;;;;;;20.10;74.20;;;;;;5019390;28;1563;-67
2023/10/14 05:41:39;;;;;;;;;;;20.10;74.20;;;;;;5020391;28;1370;-67
2023/10/14 05:44:05;;;;;;;;;;;20.10;74.20;;;;;;5021245;28;1490;-67
2023/10/14 05:46:31;;;;;;;;;;;20.10;74.20;;;;;;5016847;28;1969;-68
2023/10/14 05:48:56;;;;;;;;;;;20.10;74.20;;;;;;5018416;28;1331;-66
2023/10/14 05:51:22;;;;;;;;;;;20.10;74.20;;;;;;5020095;28;1463;-66
2023/10/14 05:53:48;;;;;;;;;;;20.10;74.20;;;;;;5018568;28;1769;-66
2023/10/14 05:56:17;;;;;;;;;;;20.10;74.10;;;;;;5018413;28;1539;-66
2023/10/14 05:58:42;;;;;;;;;;;20.10;74.20;;;;;;5018455;28;1257;-67
2023/10/14 06:01:11;;;;;;;;;;;20.10;74.20;;;;;;5019584;28;1448;-68
2023/10/14 06:03:37;;;;;;;;;;;20.10;74.30;;;;;;5018417;28;1218;-68
2023/10/14 06:06:03;;;;;;;;;;;20.10;74.20;;;;;;5020631;28;1381;-68
2023/10/14 06:08:32;;;;;;;;;;;20.10;74.20;;;;;;5021478;28;1973;-68
2023/10/14 06:10:59;;;;;;;;;;;20.10;74.20;;;;;;5018176;28;951;-68
2023/10/14 06:13:27;;;;;;;;;;;20.10;74.20;;;;;;5020921;28;1432;-68
2023/10/14 06:15:52;;;;;;;;;;;20.10;74.20;;;;;;5017049;28;1751;-68
2023/10/14 06:18:18;;;;;;;;;;;20.10;74.20;;;;;;5018107;28;1669;-68
2023/10/14 06:20:47;;;;;;;;;;;20.10;74.20;;;;;;5016188;28;1338;-68
2023/10/14 06:23:12;;;;;;;;;;;20.10;74.20;;;;;;5020778;28;1519;-67
2023/10/14 06:25:38;;;;;;;;;;;20.10;74.30;;;;;;5016813;28;4106;-68
2023/10/14 06:28:04;;;;;;;;;;;20.10;74.20;;;;;;5013038;28;4378;-67
2023/10/14 06:30:30;;;;;;;;;;;20.10;74.20;;;;;;5022165;28;2170;-67
2023/10/14 06:33:03;;;;;;;;;;;20.10;74.20;;;;;;5023205;28;1440;-68
2023/10/14 06:35:37;;;;;;;;;;;20.10;74.20;;;;;;5024276;28;1531;-70
2023/10/14 06:38:09;;;;;;;;;;;20.10;74.20;;;;;;5022313;28;1925;-67
2023/10/14 06:40:41;;;;;;;;;;;20.10;74.20;;;;;;5023457;28;1639;-68
2023/10/14 06:43:09;;;;;;;;;;;20.10;74.30;;;;;;5019892;28;1382;-67
2023/10/14 06:45:35;;;;;;;;;;;20.10;74.20;;;;;;5022046;28;1344;-68
2023/10/14 06:48:03;;;;;;;;;;;20.10;74.20;;;;;;5023740;28;1902;-67
2023/10/14 06:50:29;;;;;;;;;;;20.10;74.20;;;;;;5024387;28;1361;-68
2023/10/14 06:53:07;;;;;;;;;;;20.10;74.20;;;;;;5022959;28;1649;-68
2023/10/14 06:55:39;;;;;;;;;;;20.10;74.20;;;;;;5021382;28;1444;-68
2023/10/14 06:58:08;;;;;;;;;;;20.10;74.20;;;;;;5020515;28;1934;-67
2023/10/14 07:00:37;;;;;;;;;;;20.10;74.20;;;;;;5019682;28;1432;-67
2023/10/14 07:03:03;;;;;;;;;;;20.10;74.20;;;;;;5019801;28;2156;-67
2023/10/14 07:05:28;;;;;;;;;;;20.10;74.20;;;;;;5021118;28;1361;-68
2023/10/14 07:07:55;;;;;;;;;;;20.10;74.20;;;;;;5020089;28;1918;-67
2023/10/14 07:10:27;;;;;;;;;;;20.10;74.20;;;;;;5021706;28;1440;-67
2023/10/14 07:13:00;;;;;;;;;;;20.10;74.20;;;;;;5019486;28;1213;-67
2023/10/14 07:15:26;;;;;;;;;;;20.10;74.20;;;;;;5025542;28;1334;-68
2023/10/14 07:17:54;;;;;;;;;;;20.10;74.20;;;;;;5020751;28;1412;-67
2023/10/14 07:20:19;;;;;;;;;;;20.10;74.20;;;;;;5023501;28;1262;-67
2023/10/14 07:22:45;;;;;;;;;;;20.10;74.20;;;;;;5016887;28;1691;-67
2023/10/14 07:25:10;;;;;;;;;;;20.10;74.20;;;;;;5021345;28;1495;-67
2023/10/14 07:27:37;;;;;;;;;;;20.10;74.20;;;;;;5023443;28;1910;-67
2023/10/14 07:30:13;;;;;;;;;;;20.10;74.20;;;;;;5019987;28;868;-67
2023/10/14 07:32:48;;;;;;;;;;;20.10;74.20;;;;;;5018719;28;1232;-67
2023/10/14 07:35:14;;;;;;;;;;;20.10;74.30;;;;;;5020510;28;1466;-67
2023/10/14 07:37:43;;;;;;;;;;;20.10;74.20;;;;;;5017765;28;1422;-67
2023/10/14 07:40:27;;;;;;;;;;;20.10;74.20;;;;;;5019681;28;1389;-67
2023/10/14 07:42:53;;;;;;;;;;;20.10;74.20;;;;;;5022144;28;1245;-67
2023/10/14 07:45:22;;;;;;;;;;;20.10;74.20;;;;;;5024006;28;1423;-67
2023/10/14 07:47:48;;;;;;;;;;;20.10;74.20;;;;;;5022110;28;1906;-67
2023/10/14 07:50:13;;;;;;;;;;;20.10;74.30;;;;;;5021785;28;1243;-67
2023/10/14 07:52:38;;;;;;;;;;;20.10;74.20;;;;;;5023668;28;1338;-67
2023/10/14 07:55:04;;;;;;;;;;;20.10;74.20;;;;;;5009673;28;4144;-67
2023/10/14 07:57:31;;;;;;;;;;;20.10;74.20;;;;;;5010241;28;4802;-67
2023/10/14 07:59:59;;;;;;;;;;;20.10;74.30;;;;;;4984367;28;4100;-68
2023/10/14 08:02:28;;;;;;;;;;;20.10;74.20;;;;;;5003853;28;4564;-67
2023/10/14 08:04:54;;;;;;;;;;;20.10;74.30;;;;;;5020117;28;4797;-67
2023/10/14 08:07:20;;;;;;;;;;;20.10;74.30;;;;;;5021556;28;1979;-67
2023/10/14 08:09:47;;;;;;;;;;;20.10;74.30;;;;;;5020898;28;1951;-67
2023/10/14 08:12:14;;;;;;;;;;;20.10;74.20;;;;;;5011514;28;4192;-68
2023/10/14 08:14:40;;;;;;;;;;;20.10;74.20;;;;;;5017613;28;4499;-68
2023/10/14 08:17:11;;;;;;;;;;;20.10;74.30;;;;;;5020804;28;1795;-67
2023/10/14 08:19:37;;;;;;;;;;;20.10;74.30;;;;;;5019386;28;1472;-67
2023/10/14 08:22:05;;;;;;;;;;;20.10;74.30;;;;;;5023183;28;1370;-67
2023/10/14 08:24:30;;;;;;;;;;;20.10;74.20;;;;;;5020744;28;1450;-68
2023/10/14 08:26:56;;;;;;;;;;;20.10;74.20;;;;;;5018223;28;1910;-67
2023/10/14 08:29:21;;;;;;;;;;;20.10;74.20;;;;;;5021669;28;1441;-69
2023/10/14 08:31:51;;;;;;;;;;;20.10;74.20;;;;;;5017746;28;1445;-67
2023/10/14 08:34:17;;;;;;;;;;;20.10;74.20;;;;;;5020960;28;1345;-67
2023/10/14 08:36:43;;;;;;;;;;;20.10;74.20;;;;;;5019811;28;1439;-67
2023/10/14 08:39:08;;;;;;;;;;;20.10;74.20;;;;;;5019663;28;1520;-67
2023/10/14 08:41:34;;;;;;;;;;;20.10;74.30;;;;;;5015044;28;1522;-67
2023/10/14 08:44:00;;;;;;;;;;;20.10;74.20;;;;;;5014459;28;1277;-67
2023/10/14 08:46:29;;;;;;;;;;;20.10;74.20;;;;;;5019821;28;1351;-67
2023/10/14 08:48:55;;;;;;;;;;;20.10;74.20;;;;;;5019800;28;1282;-67
2023/10/14 08:51:21;;;;;;;;;;;20.10;74.20;;;;;;5018809;28;1603;-67
2023/10/14 08:53:47;;;;;;;;;;;20.10;74.20;;;;;;5020294;28;1179;-67
2023/10/14 08:56:12;;;;;;;;;;;20.10;74.20;;;;;;5020727;28;1365;-67
2023/10/14 08:58:39;;;;;;;;;;;20.10;74.20;;;;;;5019875;28;1329;-67
2023/10/14 09:01:06;;;;;;;;;;;20.10;74.20;;;;;;5019777;28;1569;-67
2023/10/14 09:03:31;;;;;;;;;;;20.10;74.20;;;;;;5017174;28;1501;-67
2023/10/14 09:05:57;;;;;;;;;;;20.10;74.30;;;;;;5019648;28;1479;-67
2023/10/14 09:08:23;;;;;;;;;;;20.10;74.30;;;;;;5018074;28;1906;-67
2023/10/14 09:10:52;;;;;;;;;;;20.10;74.20;;;;;;5018399;28;1475;-67
2023/10/14 09:13:21;;;;;;;;;;;20.10;74.20;;;;;;5019721;28;1381;-67
2023/10/14 09:15:46;;;;;;;;;;;20.10;74.20;;;;;;5021450;28;1351;-67
2023/10/14 09:18:18;;;;;;;;;;;20.10;74.30;;;;;;5017172;28;1426;-67
2023/10/14 09:20:44;;;;;;;;;;;20.10;74.30;;;;;;5020289;28;1367;-67
2023/10/14 09:23:10;;;;;;;;;;;20.10;74.20;;;;;;5019198;28;1362;-67
2023/10/14 09:25:39;;;;;;;;;;;20.10;74.30;;;;;;5019477;28;1493;-67
2023/10/14 09:28:06;;;;;;;;;;;20.10;74.30;;;;;;5021701;28;1980;-67
2023/10/14 09:30:31;;;;;;;;;;;20.10;74.30;;;;;;5020090;28;1444;-67
2023/10/14 09:32:57;;;;;;;;;;;20.10;74.30;;;;;;5018163;28;1618;-67
2023/10/14 09:35:29;;;;;;;;;;;20.10;74.30;;;;;;5018995;28;1309;-67
2023/10/14 09:37:55;;;;;;;;;;;20.10;74.30;;;;;;5020555;28;1398;-67
2023/10/14 09:40:20;;;;;;;;;;;20.10;74.30;;;;;;5020476;28;1435;-67
2023/10/14 09:42:48;;;;;;;;;;;20.10;75.00;;;;;;5019765;28;1471;-67
2023/10/14 09:45:13;;;;;;;;;;;20.10;74.30;;;;;;5017435;28;1565;-67
2023/10/14 09:47:40;;;;;;;;;;;20.10;74.30;;;;;;5020358;28;1894;-67
2023/10/14 09:50:06;;;;;;;;;;;20.10;74.30;;;;;;5019810;28;1516;-67
2023/10/14 09:52:32;;;;;;;;;;;20.10;74.30;;;;;;5015730;28;1468;-67
2023/10/14 09:54:57;;;;;;;;;;;20.10;74.30;;;;;;5020441;28;1449;-67
2023/10/14 09:57:23;;;;;;;;;;;20.10;74.30;;;;;;5020469;28;1277;-67
2023/10/14 09:59:48;;;;;;;;;;;20.10;74.30;;;;;;5021696;28;1386;-67
2023/10/14 10:02:14;;;;;;;;;;;20.10;74.30;;;;;;5023856;28;1462;-67
2023/10/14 10:04:42;;;;;;;;;;;20.10;74.30;;;;;;5025605;28;1159;-67
2023/10/14 10:07:26;;;;;;;;;;;20.10;74.30;;;;;;5022564;28;1894;-67
2023/10/14 10:09:52;;;;;;;;;;;20.10;74.30;;;;;;5025197;28;1513;-67
2023/10/14 10:12:20;;;;;;;;;;;20.10;74.30;;;;;;5023996;28;1378;-67
2023/10/14 10:14:46;;;;;;;;;;;20.20;74.40;;;;;;5021796;28;1799;-67
2023/10/14 10:17:12;;;;;;;;;;;20.10;74.30;;;;;;5019458;28;1948;-67
2023/10/14 10:19:55;;;;;;;;;;;20.10;74.30;;;;;;5022800;28;1425;-67
2023/10/14 10:22:21;;;;;;;;;;;20.10;74.30;;;;;;5023420;28;1325;-67
2023/10/14 10:24:46;;;;;;;;;;;20.10;74.30;;;;;;5022125;28;1524;-67
2023/10/14 10:27:14;;;;;;;;;;;20.10;74.30;;;;;;5021359;28;1914;-67
2023/10/14 10:29:50;;;;;;;;;;;20.10;74.30;;;;;;5024555;28;1292;-67
2023/10/14 10:32:22;;;;;;;;;;;20.10;74.30;;;;;;5020967;28;1425;-67
2023/10/14 10:35:24;;;;;;;;;;;20.10;74.30;;;;;;5025170;28;1213;-68
2023/10/14 10:37:53;;;;;;;;;;;20.10;74.30;;;;;;4990639;28;1428;-67
2023/10/14 10:40:26;;;;;;;;;;;20.10;74.30;;;;;;5020555;28;1282;-67
2023/10/14 10:42:53;;;;;;;;;;;20.10;74.30;;;;;;5024305;28;1581;-67
2023/10/14 10:45:22;;;;;;;;;;;20.10;74.30;;;;;;5020384;28;1084;-68
2023/10/14 10:47:54;;;;;;;;;;;20.10;74.30;;;;;;5019861;28;1898;-67
2023/10/14 10:50:25;;;;;;;;;;;20.10;74.30;;;;;;5020272;28;1258;-67
2023/10/14 10:53:13;;;;;;;;;;;20.10;74.30;;;;;;5023566;28;1288;-67
2023/10/14 10:55:39;;;;;;;;;;;20.10;74.30;;;;;;5019703;28;1278;-67
2023/10/14 10:58:05;;;;;;;;;;;20.10;74.40;;;;;;5037717;28;1283;-67
2023/10/14 11:00:31;;;;;;;;;;;20.10;74.30;;;;;;5020060;28;1443;-67
2023/10/14 11:02:57;;;;;;;;;;;20.10;74.30;;;;;;5022373;28;1447;-67
2023/10/14 11:05:24;;;;;;;;;;;20.10;74.30;;;;;;5019192;28;1489;-67
2023/10/14 11:07:52;;;;;;;;;;;20.10;74.30;;;;;;5021763;28;1906;-67
2023/10/14 11:10:21;;;;;;;;;;;20.10;74.30;;;;;;5021158;28;1315;-67
2023/10/14 11:12:46;;;;;;;;;;;20.10;74.30;;;;;;5020752;28;1297;-67
2023/10/14 11:15:21;;;;;;;;;;;20.10;74.30;;;;;;5021820;28;1351;-67
2023/10/14 11:17:54;;;;;;;;;;;20.10;74.30;;;;;;5019744;28;1386;-67
2023/10/14 11:20:20;;;;;;;;;;;20.10;74.30;;;;;;5017950;28;1387;-67
2023/10/14 11:22:45;;;;;;;;;;;20.10;74.30;;;;;;5019609;28;1301;-67
2023/10/14 11:25:11;;;;;;;;;;;20.10;74.30;;;;;;5021766;28;1265;-67
2023/10/14 11:27:36;;;;;;;;;;;20.10;74.30;;;;;;5021885;28;1902;-67
2023/10/14 11:30:04;;;;;;;;;;;20.10;74.30;;;;;;5019447;28;1497;-68
2023/10/14 11:32:30;;;;;;;;;;;20.10;74.30;;;;;;5022001;28;1198;-68
2023/10/14 11:34:58;;;;;;;;;;;20.10;74.30;;;;;;5018657;28;1114;-67
2023/10/14 11:37:24;;;;;;;;;;;20.10;74.30;;;;;;5022400;28;1465;-67
2023/10/14 11:39:53;;;;;;;;;;;20.10;74.30;;;;;;5021789;28;1204;-67
2023/10/14 11:42:18;;;;;;;;;;;20.10;74.30;;;;;;5019503;28;1006;-67
2023/10/14 11:44:45;;;;;;;;;;;20.10;74.30;;;;;;5022112;28;932;-67
2023/10/14 11:47:16;;;;;;;;;;;20.10;74.30;;;;;;5020838;28;1963;-67
2023/10/14 11:49:49;;;;;;;;;;;20.10;74.30;;;;;;5017743;28;1448;-67
2023/10/14 11:52:15;;;;;;;;;;;20.10;74.30;;;;;;5019150;28;1360;-67
2023/10/14 11:54:41;;;;;;;;;;;20.10;74.30;;;;;;5021569;28;2160;-67
2023/10/14 11:57:07;;;;;;;;;;;20.10;74.30;;;;;;5022799;28;1335;-67
2023/10/14 11:59:33;;;;;;;;;;;20.10;74.30;;;;;;5017807;28;1454;-67
2023/10/14 12:01:58;;;;;;;;;;;20.10;74.30;;;;;;5021841;28;1635;-67
2023/10/14 12:04:24;;;;;;;;;;;20.10;74.30;;;;;;5023159;28;1599;-67
2023/10/14 12:06:49;;;;;;;;;;;20.10;74.30;;;;;;5019866;28;1969;-67
2023/10/14 12:09:16;;;;;;;;;;;20.10;74.30;;;;;;5022162;28;1312;-67
2023/10/14 12:11:42;;;;;;;;;;;20.10;74.30;;;;;;5021226;28;1375;-67
2023/10/14 12:14:10;;;;;;;;;;;20.10;74.30;;;;;;5018658;28;1435;-67
2023/10/14 12:16:35;;;;;;;;;;;20.10;74.30;;;;;;5019082;28;1409;-68
2023/10/14 12:19:01;;;;;;;;;;;20.10;74.30;;;;;;5019610;28;1425;-67
2023/10/14 12:21:27;;;;;;;;;;;20.10;74.30;;;;;;5021794;28;1553;-67
2023/10/14 12:23:55;;;;;;;;;;;20.10;74.30;;;;;;5020281;28;1448;-67
2023/10/14 12:26:20;;;;;;;;;;;20.10;74.30;;;;;;5017984;28;1497;-67
2023/10/14 12:28:48;;;;;;;;;;;20.10;74.30;;;;;;5021460;28;1979;-67
2023/10/14 12:31:14;;;;;;;;;;;20.10;74.30;;;;;;5021228;28;1258;-67
2023/10/14 12:33:41;;;;;;;;;;;20.10;74.30;;;;;;5020672;28;1301;-67
2023/10/14 12:36:11;;;;;;;;;;;20.10;74.30;;;;;;5019543;28;1555;-67
2023/10/14 12:38:37;;;;;;;;;;;20.20;74.30;;;;;;5020913;28;1530;-67
2023/10/14 12:41:05;;;;;;;;;;;20.10;74.30;;;;;;5018880;28;1322;-67
2023/10/14 12:43:37;;;;;;;;;;;20.10;74.30;;;;;;5022010;28;1396;-67
2023/10/14 12:48:43;;;;;;;;;;;20.10;74.30;;;;;;5021175;28;1968;-67
2023/10/14 12:51:11;;;;;;;;;;;20.10;74.30;;;;;;5017484;28;1268;-68
2023/10/14 12:53:37;;;;;;;;;;;20.10;74.30;;;;;;5019577;28;1440;-67
2023/10/14 12:56:03;;;;;;;;;;;20.20;74.30;;;;;;5020599;28;1394;-67
2023/10/14 12:58:29;;;;;;;;;;;20.10;74.30;;;;;;5019111;28;1372;-67
2023/10/14 13:00:54;;;;;;;;;;;20.10;74.30;;;;;;5020670;28;1640;-67
2023/10/14 13:03:21;;;;;;;;;;;20.10;74.30;;;;;;5021446;28;1586;-67
2023/10/14 13:05:52;;;;;;;;;;;20.10;74.30;;;;;;5019906;28;1377;-67
2023/10/14 13:08:19;;;;;;;;;;;20.10;74.30;;;;;;5021112;28;1961;-67
2023/10/14 13:10:44;;;;;;;;;;;20.20;74.30;;;;;;5017159;28;1542;-67
2023/10/14 13:13:12;;;;;;;;;;;20.10;74.30;;;;;;5021983;28;1302;-68
2023/10/14 13:15:37;;;;;;;;;;;20.10;74.30;;;;;;5017136;28;1018;-68
2023/10/14 13:18:07;;;;;;;;;;;20.10;74.20;;;;;;5022546;28;1186;-68
2023/10/14 13:20:33;;;;;;;;;;;20.10;74.30;;;;;;5018159;28;1834;-68
2023/10/14 13:23:05;;;;;;;;;;;20.10;74.30;;;;;;5020459;28;1024;-67
2023/10/14 13:25:32;;;;;;;;;;;20.10;74.30;;;;;;5017560;28;911;-67
2023/10/14 13:27:57;;;;;;;;;;;20.10;74.30;;;;;;5024241;28;1977;-67
2023/10/14 13:30:23;;;;;;;;;;;20.10;74.30;;;;;;5019837;28;1255;-68
2023/10/14 13:32:55;;;;;;;;;;;20.10;74.30;;;;;;5019305;28;1556;-67
2023/10/14 13:35:21;;;;;;;;;;;20.20;74.30;;;;;;5019041;28;1210;-67
2023/10/14 13:37:47;;;;;;;;;;;20.10;74.30;;;;;;5017553;28;1281;-67
2023/10/14 13:40:18;;;;;;;;;;;20.10;74.30;;;;;;5021756;28;1312;-68
2023/10/14 13:42:44;;;;;;;;;;;20.10;74.30;;;;;;5020506;28;1534;-67
2023/10/14 13:45:12;;;;;;;;;;;20.10;74.30;;;;;;5017700;28;1329;-67
2023/10/14 13:47:37;;;;;;;;;;;20.10;74.30;;;;;;5017313;28;1963;-68
2023/10/14 13:50:04;;;;;;;;;;;20.10;74.30;;;;;;5021226;28;1460;-67
2023/10/14 13:52:32;;;;;;;;;;;20.10;74.30;;;;;;5018909;28;1442;-67
2023/10/14 13:54:58;;;;;;;;;;;20.10;74.30;;;;;;5017034;28;1863;-67
2023/10/14 13:57:24;;;;;;;;;;;20.10;74.30;;;;;;5018663;28;1464;-67
2023/10/14 13:59:51;;;;;;;;;;;20.10;74.30;;;;;;5016173;28;1363;-67
2023/10/14 14:02:19;;;;;;;;;;;20.10;74.30;;;;;;5021250;28;1296;-67
2023/10/14 14:04:45;;;;;;;;;;;20.10;74.30;;;;;;5021149;28;1359;-67
2023/10/14 14:07:12;;;;;;;;;;;20.10;74.30;;;;;;5021213;28;1906;-66
2023/10/14 14:09:38;;;;;;;;;;;20.10;74.30;;;;;;5018953;28;1880;-67
2023/10/14 14:12:04;;;;;;;;;;;20.10;74.30;;;;;;5018107;28;1948;-67
2023/10/14 14:14:29;;;;;;;;;;;20.10;74.30;;;;;;5019698;28;1838;-67
2023/10/14 14:16:55;;;;;;;;;;;20.10;74.30;;;;;;5019417;28;1972;-67
2023/10/14 14:19:20;;;;;;;;;;;20.10;74.30;;;;;;5018762;28;1354;-67
2023/10/14 14:21:46;;;;;;;;;;;20.10;74.30;;;;;;5018192;28;1502;-67
2023/10/14 14:24:12;;;;;;;;;;;20.20;74.30;;;;;;5017077;28;1381;-67
2023/10/14 14:26:37;;;;;;;;;;;20.10;74.30;;;;;;5018904;28;1443;-67
2023/10/14 14:29:03;;;;;;;;;;;20.10;74.30;;;;;;5019132;28;1965;-67
2023/10/14 14:31:30;;;;;;;;;;;20.10;74.30;;;;;;5019550;28;1253;-67
2023/10/14 14:33:56;;;;;;;;;;;20.10;74.30;;;;;;5018258;28;1483;-67
2023/10/14 14:36:22;;;;;;;;;;;20.10;74.30;;;;;;5017277;28;1336;-67
2023/10/14 14:38:47;;;;;;;;;;;20.10;74.30;;;;;;5018880;28;1431;-67
2023/10/14 14:41:18;;;;;;;;;;;20.10;74.30;;;;;;5017954;28;1500;-66
2023/10/14 14:43:46;;;;;;;;;;;20.10;74.30;;;;;;5021710;28;1462;-67
2023/10/14 14:46:12;;;;;;;;;;;20.20;74.40;;;;;;5021309;28;1365;-67
2023/10/14 14:48:37;;;;;;;;;;;20.10;74.30;;;;;;5020456;28;1906;-67
2023/10/14 14:51:03;;;;;;;;;;;20.10;74.30;;;;;;5021366;28;1528;-67
2023/10/14 14:53:30;;;;;;;;;;;20.10;74.30;;;;;;5020133;28;2233;-67
2023/10/14 14:55:56;;;;;;;;;;;20.10;74.30;;;;;;5020166;28;1926;-67
2023/10/14 14:58:22;;;;;;;;;;;20.10;74.30;;;;;;5024285;28;1263;-67
2023/10/14 15:00:48;;;;;;;;;;;20.10;74.30;;;;;;5023272;28;1416;-68
2023/10/14 15:03:14;;;;;;;;;;;20.10;74.30;;;;;;5023394;28;1361;-68
2023/10/14 15:05:41;;;;;;;;;;;20.10;74.30;;;;;;5021468;28;1368;-67
2023/10/14 15:08:10;;;;;;;;;;;20.10;74.30;;;;;;5017654;28;1906;-68
2023/10/14 15:10:36;;;;;;;;;;;20.10;74.30;;;;;;5019516;28;1440;-69
2023/10/14 15:13:02;;;;;;;;;;;20.10;74.30;;;;;;5021620;28;1329;-67
2023/10/14 15:15:28;;;;;;;;;;;20.10;74.30;;;;;;5021338;28;1397;-70